Saint Osyth, United Kingdom
Current Conditions -  °F | °C
As of 4:50 PM on Friday 24 Oct 2014 (Local Time) from EGUW Reporting Station
Scattered Clouds Scattered Clouds  
Wind Chill: 61°   Ceiling: Unl
Heat Index: 61°   Visibility: 6mi
Dew Point: 57°   Wind: 7mph
Humidity: 88%   Direction: 180°S
Pressure: 29.88"   Gusts: NA
Location:  51.8°N, 1.08°E
Report Text: EGUW 241550Z 18006KT 9999 FEW012 SCT030 16/14 Q1012 BLU BECMG SCT020 WHT
Loading
Personal Weather Stations






























Interactive Weather Map
Tropical Storm Tracking
New forecast layout! Learn more

10-Day Weather Forecast

Advertisements
Track Severe Weather on mobile